sensor_id;sensor_type;location;lat;lon;timestamp;P1;durP1;ratioP1;P2;durP2;ratioP2
77814;SDS011;67002;52.124;21.210;2023-04-29T00:02:16;156.50;;;51.20;;
77814;SDS011;67002;52.124;21.210;2023-04-29T00:06:13;163.20;;;50.20;;
77814;SDS011;67002;52.124;21.210;2023-04-29T00:09:32;178.70;;;50.60;;
77814;SDS011;67002;52.124;21.210;2023-04-29T00:13:10;166.70;;;49.70;;
77814;SDS011;67002;52.124;21.210;2023-04-29T00:16:47;154.50;;;45.80;;
77814;SDS011;67002;52.124;21.210;2023-04-29T00:20:35;159.80;;;46.00;;
77814;SDS011;67002;52.124;21.210;2023-04-29T00:24:04;156.20;;;45.10;;
77814;SDS011;67002;52.124;21.210;2023-04-29T00:27:38;148.30;;;47.00;;
77814;SDS011;67002;52.124;21.210;2023-04-29T00:31:21;154.40;;;45.10;;
77814;SDS011;67002;52.124;21.210;2023-04-29T00:35:26;144.20;;;42.40;;
77814;SDS011;67002;52.124;21.210;2023-04-29T00:39:13;147.90;;;47.40;;
77814;SDS011;67002;52.124;21.210;2023-04-29T00:42:43;141.60;;;45.30;;
77814;SDS011;67002;52.124;21.210;2023-04-29T00:46:29;165.00;;;47.30;;
77814;SDS011;67002;52.124;21.210;2023-04-29T00:49:56;147.20;;;45.20;;
77814;SDS011;67002;52.124;21.210;2023-04-29T00:53:25;148.90;;;47.40;;
77814;SDS011;67002;52.124;21.210;2023-04-29T00:57:10;137.00;;;44.40;;
77814;SDS011;67002;52.124;21.210;2023-04-29T01:00:41;141.30;;;45.00;;
77814;SDS011;67002;52.124;21.210;2023-04-29T01:04:08;141.20;;;44.10;;
77814;SDS011;67002;52.124;21.210;2023-04-29T01:07:47;135.20;;;41.20;;
77814;SDS011;67002;52.124;21.210;2023-04-29T01:11:41;145.20;;;43.60;;
77814;SDS011;67002;52.124;21.210;2023-04-29T01:15:37;143.80;;;43.00;;
77814;SDS011;67002;52.124;21.210;2023-04-29T01:18:55;134.30;;;44.80;;
77814;SDS011;67002;52.124;21.210;2023-04-29T01:22:30;153.10;;;45.70;;
77814;SDS011;67002;52.124;21.210;2023-04-29T01:26:32;141.40;;;41.90;;
77814;SDS011;67002;52.124;21.210;2023-04-29T01:30:05;133.50;;;42.80;;
77814;SDS011;67002;52.124;21.210;2023-04-29T01:34:04;133.50;;;40.40;;
77814;SDS011;67002;52.124;21.210;2023-04-29T01:37:37;129.00;;;44.10;;
77814;SDS011;67002;52.124;21.210;2023-04-29T01:41:06;132.90;;;41.70;;
77814;SDS011;67002;52.124;21.210;2023-04-29T01:44:25;125.40;;;39.80;;
77814;SDS011;67002;52.124;21.210;2023-04-29T01:48:01;136.10;;;42.40;;
77814;SDS011;67002;52.124;21.210;2023-04-29T01:51:37;133.60;;;37.30;;
77814;SDS011;67002;52.124;21.210;2023-04-29T01:55:23;116.90;;;36.70;;
77814;SDS011;67002;52.124;21.210;2023-04-29T01:59:19;127.30;;;38.80;;
77814;SDS011;67002;52.124;21.210;2023-04-29T02:02:56;128.10;;;39.80;;
77814;SDS011;67002;52.124;21.210;2023-04-29T02:06:44;121.30;;;39.40;;
77814;SDS011;67002;52.124;21.210;2023-04-29T02:09:51;124.20;;;36.70;;
77814;SDS011;67002;52.124;21.210;2023-04-29T02:13:36;124.50;;;38.20;;
77814;SDS011;67002;52.124;21.210;2023-04-29T02:17:33;114.00;;;38.00;;
77814;SDS011;67002;52.124;21.210;2023-04-29T02:21:12;118.30;;;37.20;;
77814;SDS011;67002;52.124;21.210;2023-04-29T02:24:59;114.50;;;35.40;;
77814;SDS011;67002;52.124;21.210;2023-04-29T02:28:17;130.60;;;39.80;;
77814;SDS011;67002;52.124;21.210;2023-04-29T02:32:04;112.30;;;35.30;;
77814;SDS011;67002;52.124;21.210;2023-04-29T02:35:39;106.50;;;34.70;;
77814;SDS011;67002;52.124;21.210;2023-04-29T02:39:00;101.70;;;33.60;;
77814;SDS011;67002;52.124;21.210;2023-04-29T02:42:43;104.50;;;33.60;;
77814;SDS011;67002;52.124;21.210;2023-04-29T02:46:15;101.30;;;32.90;;
77814;SDS011;67002;52.124;21.210;2023-04-29T02:50:10;106.80;;;32.90;;
77814;SDS011;67002;52.124;21.210;2023-04-29T02:53:48;100.90;;;32.60;;
77814;SDS011;67002;52.124;21.210;2023-04-29T02:57:25;93.60;;;31.60;;
77814;SDS011;67002;52.124;21.210;2023-04-29T03:01:12;118.80;;;35.20;;
77814;SDS011;67002;52.124;21.210;2023-04-29T03:05:00;95.30;;;34.70;;
77814;SDS011;67002;52.124;21.210;2023-04-29T03:08:09;107.60;;;35.00;;
77814;SDS011;67002;52.124;21.210;2023-04-29T03:12:05;92.30;;;31.70;;
77814;SDS011;67002;52.124;21.210;2023-04-29T03:15:53;95.40;;;32.90;;
77814;SDS011;67002;52.124;21.210;2023-04-29T03:19:02;97.20;;;33.60;;
77814;SDS011;67002;52.124;21.210;2023-04-29T03:22:39;93.20;;;31.00;;
77814;SDS011;67002;52.124;21.210;2023-04-29T03:26:36;86.00;;;30.30;;
77814;SDS011;67002;52.124;21.210;2023-04-29T03:30:24;81.80;;;26.70;;
77814;SDS011;67002;52.124;21.210;2023-04-29T03:34:01;88.70;;;31.10;;
77814;SDS011;67002;52.124;21.210;2023-04-29T03:37:10;84.40;;;29.00;;
77814;SDS011;67002;52.124;21.210;2023-04-29T03:41:05;91.20;;;28.80;;
77814;SDS011;67002;52.124;21.210;2023-04-29T03:44:45;87.20;;;26.90;;
77814;SDS011;67002;52.124;21.210;2023-04-29T03:48:20;80.10;;;28.80;;
77814;SDS011;67002;52.124;21.210;2023-04-29T03:52:03;80.00;;;27.90;;
77814;SDS011;67002;52.124;21.210;2023-04-29T03:55:19;73.00;;;27.30;;
77814;SDS011;67002;52.124;21.210;2023-04-29T03:58:56;85.50;;;26.90;;
77814;SDS011;67002;52.124;21.210;2023-04-29T04:02:33;85.60;;;27.60;;
77814;SDS011;67002;52.124;21.210;2023-04-29T04:06:18;70.70;;;26.20;;
77814;SDS011;67002;52.124;21.210;2023-04-29T04:10:23;73.40;;;26.70;;
77814;SDS011;67002;52.124;21.210;2023-04-29T04:13:53;80.60;;;26.60;;
77814;SDS011;67002;52.124;21.210;2023-04-29T04:17:31;81.70;;;25.10;;
77814;SDS011;67002;52.124;21.210;2023-04-29T04:21:10;65.00;;;23.00;;
77814;SDS011;67002;52.124;21.210;2023-04-29T04:24:56;66.10;;;25.10;;
77814;SDS011;67002;52.124;21.210;2023-04-29T04:28:14;72.50;;;24.90;;
77814;SDS011;67002;52.124;21.210;2023-04-29T04:31:46;65.80;;;22.80;;
77814;SDS011;67002;52.124;21.210;2023-04-29T04:35:39;63.60;;;24.10;;
77814;SDS011;67002;52.124;21.210;2023-04-29T04:39:27;64.40;;;24.30;;
77814;SDS011;67002;52.124;21.210;2023-04-29T04:42:54;70.90;;;25.10;;
77814;SDS011;67002;52.124;21.210;2023-04-29T04:46:12;69.30;;;23.10;;
77814;SDS011;67002;52.124;21.210;2023-04-29T04:50:18;64.40;;;24.90;;
77814;SDS011;67002;52.124;21.210;2023-04-29T04:54:05;60.30;;;22.40;;
77814;SDS011;67002;52.124;21.210;2023-04-29T04:58:00;75.70;;;24.10;;
77814;SDS011;67002;52.124;21.210;2023-04-29T05:01:39;57.90;;;23.80;;
77814;SDS011;67002;52.124;21.210;2023-04-29T05:05:17;67.20;;;23.60;;
77814;SDS011;67002;52.124;21.210;2023-04-29T05:08:36;62.50;;;22.70;;
77814;SDS011;67002;52.124;21.210;2023-04-29T05:12:10;53.70;;;21.40;;
77814;SDS011;67002;52.124;21.210;2023-04-29T05:15:53;57.40;;;24.40;;
77814;SDS011;67002;52.124;21.210;2023-04-29T05:19:57;53.30;;;21.00;;
77814;SDS011;67002;52.124;21.210;2023-04-29T05:23:18;58.80;;;20.20;;
77814;SDS011;67002;52.124;21.210;2023-04-29T05:26:57;57.00;;;20.40;;
77814;SDS011;67002;52.124;21.210;2023-04-29T05:30:51;59.70;;;22.10;;
77814;SDS011;67002;52.124;21.210;2023-04-29T05:34:31;58.30;;;21.50;;
77814;SDS011;67002;52.124;21.210;2023-04-29T05:38:10;56.60;;;21.40;;
77814;SDS011;67002;52.124;21.210;2023-04-29T05:41:27;67.20;;;22.30;;
77814;SDS011;67002;52.124;21.210;2023-04-29T05:45:06;59.90;;;22.50;;
77814;SDS011;67002;52.124;21.210;2023-04-29T05:48:43;54.80;;;19.90;;
77814;SDS011;67002;52.124;21.210;2023-04-29T05:52:43;50.40;;;19.50;;
77814;SDS011;67002;52.124;21.210;2023-04-29T05:55:56;53.90;;;20.40;;
77814;SDS011;67002;52.124;21.210;2023-04-29T06:00:01;56.40;;;21.90;;
77814;SDS011;67002;52.124;21.210;2023-04-29T06:03:37;54.10;;;20.30;;
77814;SDS011;67002;52.124;21.210;2023-04-29T06:06:56;56.30;;;20.90;;
77814;SDS011;67002;52.124;21.210;2023-04-29T06:10:34;54.00;;;20.80;;
77814;SDS011;67002;52.124;21.210;2023-04-29T06:14:32;50.50;;;18.10;;
77814;SDS011;67002;52.124;21.210;2023-04-29T06:17:57;46.00;;;19.00;;
77814;SDS011;67002;52.124;21.210;2023-04-29T06:21:27;42.00;;;16.10;;
77814;SDS011;67002;52.124;21.210;2023-04-29T06:25:24;54.60;;;19.70;;
77814;SDS011;67002;52.124;21.210;2023-04-29T06:28:43;40.00;;;17.30;;
77814;SDS011;67002;52.124;21.210;2023-04-29T06:32:18;38.70;;;17.00;;
77814;SDS011;67002;52.124;21.210;2023-04-29T06:36:03;52.60;;;17.90;;
77814;SDS011;67002;52.124;21.210;2023-04-29T06:40:09;36.90;;;14.70;;
77814;SDS011;67002;52.124;21.210;2023-04-29T06:43:36;36.20;;;14.00;;
77814;SDS011;67002;52.124;21.210;2023-04-29T06:47:14;37.20;;;15.80;;
77814;SDS011;67002;52.124;21.210;2023-04-29T06:50:32;35.30;;;16.40;;
77814;SDS011;67002;52.124;21.210;2023-04-29T06:54:39;31.40;;;14.80;;
77814;SDS011;67002;52.124;21.210;2023-04-29T06:57:58;32.30;;;14.80;;
77814;SDS011;67002;52.124;21.210;2023-04-29T07:01:55;32.00;;;14.70;;
77814;SDS011;67002;52.124;21.210;2023-04-29T07:05:24;48.40;;;14.80;;
77814;SDS011;67002;52.124;21.210;2023-04-29T07:09:10;43.30;;;16.40;;
77814;SDS011;67002;52.124;21.210;2023-04-29T07:12:39;35.60;;;16.00;;
77814;SDS011;67002;52.124;21.210;2023-04-29T07:16:26;32.50;;;14.00;;
77814;SDS011;67002;52.124;21.210;2023-04-29T07:20:01;40.30;;;15.40;;
77814;SDS011;67002;52.124;21.210;2023-04-29T07:23:20;29.90;;;13.70;;
77814;SDS011;67002;52.124;21.210;2023-04-29T07:27:24;34.80;;;15.60;;
77814;SDS011;67002;52.124;21.210;2023-04-29T07:31:05;32.10;;;13.10;;
77814;SDS011;67002;52.124;21.210;2023-04-29T07:34:40;28.10;;;12.90;;
77814;SDS011;67002;52.124;21.210;2023-04-29T07:37:59;37.70;;;14.10;;
77814;SDS011;67002;52.124;21.210;2023-04-29T07:41:36;31.40;;;13.70;;
77814;SDS011;67002;52.124;21.210;2023-04-29T07:45:12;31.80;;;12.70;;
77814;SDS011;67002;52.124;21.210;2023-04-29T07:49:24;27.90;;;12.90;;
77814;SDS011;67002;52.124;21.210;2023-04-29T07:52:53;31.50;;;13.10;;
77814;SDS011;67002;52.124;21.210;2023-04-29T07:56:14;31.30;;;13.10;;
77814;SDS011;67002;52.124;21.210;2023-04-29T08:00:13;29.40;;;14.80;;
77814;SDS011;67002;52.124;21.210;2023-04-29T08:03:47;35.00;;;14.20;;
77814;SDS011;67002;52.124;21.210;2023-04-29T08:07:23;36.70;;;13.00;;
77814;SDS011;67002;52.124;21.210;2023-04-29T08:11:01;30.70;;;14.40;;
77814;SDS011;67002;52.124;21.210;2023-04-29T08:14:20;29.30;;;12.70;;
77814;SDS011;67002;52.124;21.210;2023-04-29T08:18:23;33.80;;;14.40;;
77814;SDS011;67002;52.124;21.210;2023-04-29T08:21:42;35.70;;;14.10;;
77814;SDS011;67002;52.124;21.210;2023-04-29T08:25:22;40.60;;;14.90;;
77814;SDS011;67002;52.124;21.210;2023-04-29T08:28:58;33.90;;;14.40;;
77814;SDS011;67002;52.124;21.210;2023-04-29T08:32:54;37.70;;;14.70;;
77814;SDS011;67002;52.124;21.210;2023-04-29T08:36:13;32.10;;;14.20;;
77814;SDS011;67002;52.124;21.210;2023-04-29T08:40:09;37.20;;;15.40;;
77814;SDS011;67002;52.124;21.210;2023-04-29T08:43:47;35.90;;;14.30;;
77814;SDS011;67002;52.124;21.210;2023-04-29T08:47:16;35.30;;;15.10;;
77814;SDS011;67002;52.124;21.210;2023-04-29T08:50:47;27.40;;;15.10;;
77814;SDS011;67002;52.124;21.210;2023-04-29T08:54:32;33.10;;;15.70;;
77814;SDS011;67002;52.124;21.210;2023-04-29T08:58:18;37.20;;;15.20;;
77814;SDS011;67002;52.124;21.210;2023-04-29T09:01:38;40.70;;;16.70;;
77814;SDS011;67002;52.124;21.210;2023-04-29T09:05:37;36.50;;;14.90;;
77814;SDS011;67002;52.124;21.210;2023-04-29T09:08:50;39.50;;;17.90;;
77814;SDS011;67002;52.124;21.210;2023-04-29T09:12:35;37.80;;;15.30;;
77814;SDS011;67002;52.124;21.210;2023-04-29T09:16:13;30.90;;;13.80;;
77814;SDS011;67002;52.124;21.210;2023-04-29T09:19:50;34.00;;;14.80;;
77814;SDS011;67002;52.124;21.210;2023-04-29T09:23:56;44.60;;;15.30;;
77814;SDS011;67002;52.124;21.210;2023-04-29T09:27:44;25.80;;;13.00;;
77814;SDS011;67002;52.124;21.210;2023-04-29T09:31:10;31.00;;;16.10;;
77814;SDS011;67002;52.124;21.210;2023-04-29T09:34:31;45.40;;;16.30;;
77814;SDS011;67002;52.124;21.210;2023-04-29T09:38:35;40.60;;;15.10;;
77814;SDS011;67002;52.124;21.210;2023-04-29T09:42:05;41.30;;;15.50;;
77814;SDS011;67002;52.124;21.210;2023-04-29T09:45:34;29.00;;;13.90;;
77814;SDS011;67002;52.124;21.210;2023-04-29T09:49:03;28.40;;;11.40;;
77814;SDS011;67002;52.124;21.210;2023-04-29T09:52:41;39.10;;;17.40;;
77814;SDS011;67002;52.124;21.210;2023-04-29T09:56:17;36.20;;;15.50;;
77814;SDS011;67002;52.124;21.210;2023-04-29T10:00:24;39.60;;;17.10;;
77814;SDS011;67002;52.124;21.210;2023-04-29T10:03:33;32.70;;;14.40;;
77814;SDS011;67002;52.124;21.210;2023-04-29T10:07:38;40.10;;;17.20;;
77814;SDS011;67002;52.124;21.210;2023-04-29T10:11:26;35.10;;;15.60;;
77814;SDS011;67002;52.124;21.210;2023-04-29T10:14:37;35.10;;;15.40;;
77814;SDS011;67002;52.124;21.210;2023-04-29T10:18:34;34.80;;;16.30;;
77814;SDS011;67002;52.124;21.210;2023-04-29T10:21:52;34.20;;;16.20;;
77814;SDS011;67002;52.124;21.210;2023-04-29T10:25:27;33.40;;;16.10;;
77814;SDS011;67002;52.124;21.210;2023-04-29T10:29:11;40.80;;;16.30;;
77814;SDS011;67002;52.124;21.210;2023-04-29T10:33:00;31.20;;;14.70;;
77814;SDS011;67002;52.124;21.210;2023-04-29T10:36:34;28.10;;;14.50;;
77814;SDS011;67002;52.124;21.210;2023-04-29T10:40:14;29.30;;;13.80;;
77814;SDS011;67002;52.124;21.210;2023-04-29T10:43:50;36.40;;;15.30;;
77814;SDS011;67002;52.124;21.210;2023-04-29T10:51:29;30.70;;;13.10;;
77814;SDS011;67002;52.124;21.210;2023-04-29T10:55:01;27.70;;;14.20;;
77814;SDS011;67002;52.124;21.210;2023-04-29T10:58:41;31.80;;;16.40;;
77814;SDS011;67002;52.124;21.210;2023-04-29T11:02:21;29.40;;;13.50;;
77814;SDS011;67002;52.124;21.210;2023-04-29T11:05:34;34.70;;;13.60;;
77814;SDS011;67002;52.124;21.210;2023-04-29T11:09:20;29.50;;;13.10;;
77814;SDS011;67002;52.124;21.210;2023-04-29T11:13:26;33.50;;;12.60;;
77814;SDS011;67002;52.124;21.210;2023-04-29T11:17:03;19.60;;;10.80;;
77814;SDS011;67002;52.124;21.210;2023-04-29T11:24:18;30.20;;;13.60;;
77814;SDS011;67002;52.124;21.210;2023-04-29T11:27:38;27.50;;;12.40;;
77814;SDS011;67002;52.124;21.210;2023-04-29T11:31:19;25.80;;;12.70;;
77814;SDS011;67002;52.124;21.210;2023-04-29T11:35:12;29.60;;;14.00;;
77814;SDS011;67002;52.124;21.210;2023-04-29T11:38:41;25.10;;;13.10;;
77814;SDS011;67002;52.124;21.210;2023-04-29T11:42:27;35.80;;;15.70;;
77814;SDS011;67002;52.124;21.210;2023-04-29T11:45:46;32.90;;;13.40;;
77814;SDS011;67002;52.124;21.210;2023-04-29T11:49:28;39.00;;;14.50;;
77814;SDS011;67002;52.124;21.210;2023-04-29T11:53:05;23.80;;;12.50;;
77814;SDS011;67002;52.124;21.210;2023-04-29T11:57:02;29.70;;;14.10;;
77814;SDS011;67002;52.124;21.210;2023-04-29T12:00:35;27.00;;;13.40;;
77814;SDS011;67002;52.124;21.210;2023-04-29T12:04:15;33.30;;;13.20;;
77814;SDS011;67002;52.124;21.210;2023-04-29T12:07:32;26.90;;;13.10;;
77814;SDS011;67002;52.124;21.210;2023-04-29T12:11:17;28.70;;;12.60;;
77814;SDS011;67002;52.124;21.210;2023-04-29T12:14:54;30.40;;;13.80;;
77814;SDS011;67002;52.124;21.210;2023-04-29T12:18:33;36.40;;;13.30;;
77814;SDS011;67002;52.124;21.210;2023-04-29T12:22:10;29.60;;;14.60;;
77814;SDS011;67002;52.124;21.210;2023-04-29T12:25:49;27.30;;;13.10;;
77814;SDS011;67002;52.124;21.210;2023-04-29T12:29:24;28.60;;;14.70;;
77814;SDS011;67002;52.124;21.210;2023-04-29T12:33:40;31.30;;;11.80;;
77814;SDS011;67002;52.124;21.210;2023-04-29T12:37:05;28.40;;;14.50;;
77814;SDS011;67002;52.124;21.210;2023-04-29T12:40:24;31.00;;;12.70;;
77814;SDS011;67002;52.124;21.210;2023-04-29T12:44:02;35.60;;;14.60;;
77814;SDS011;67002;52.124;21.210;2023-04-29T12:47:38;29.70;;;13.70;;
77814;SDS011;67002;52.124;21.210;2023-04-29T12:51:21;34.50;;;13.90;;
77814;SDS011;67002;52.124;21.210;2023-04-29T12:55:25;30.00;;;15.80;;
77814;SDS011;67002;52.124;21.210;2023-04-29T12:58:43;29.70;;;14.70;;
77814;SDS011;67002;52.124;21.210;2023-04-29T13:02:20;23.10;;;15.00;;
77814;SDS011;67002;52.124;21.210;2023-04-29T13:06:06;36.80;;;16.00;;
77814;SDS011;67002;52.124;21.210;2023-04-29T13:09:40;36.40;;;16.30;;
77814;SDS011;67002;52.124;21.210;2023-04-29T13:13:23;33.10;;;14.80;;
77814;SDS011;67002;52.124;21.210;2023-04-29T13:17:08;30.70;;;13.80;;
77814;SDS011;67002;52.124;21.210;2023-04-29T13:21:05;31.70;;;14.50;;
77814;SDS011;67002;52.124;21.210;2023-04-29T13:24:44;29.90;;;15.80;;
77814;SDS011;67002;52.124;21.210;2023-04-29T13:28:10;33.40;;;16.10;;
77814;SDS011;67002;52.124;21.210;2023-04-29T13:32:08;32.00;;;14.80;;
77814;SDS011;67002;52.124;21.210;2023-04-29T13:35:18;31.90;;;14.30;;
77814;SDS011;67002;52.124;21.210;2023-04-29T13:39:14;28.80;;;12.30;;
77814;SDS011;67002;52.124;21.210;2023-04-29T13:42:52;28.20;;;14.80;;
77814;SDS011;67002;52.124;21.210;2023-04-29T13:46:08;37.90;;;14.90;;
77814;SDS011;67002;52.124;21.210;2023-04-29T13:50:02;31.30;;;14.50;;
77814;SDS011;67002;52.124;21.210;2023-04-29T13:53:48;36.10;;;15.60;;
77814;SDS011;67002;52.124;21.210;2023-04-29T13:57:09;35.30;;;17.40;;
77814;SDS011;67002;52.124;21.210;2023-04-29T14:00:45;34.80;;;14.80;;
77814;SDS011;67002;52.124;21.210;2023-04-29T14:05:00;32.10;;;15.80;;
77814;SDS011;67002;52.124;21.210;2023-04-29T14:08:28;32.20;;;16.10;;
77814;SDS011;67002;52.124;21.210;2023-04-29T14:11:48;116.40;;;57.40;;
77814;SDS011;67002;52.124;21.210;2023-04-29T14:15:50;32.80;;;16.80;;
77814;SDS011;67002;52.124;21.210;2023-04-29T14:19:28;36.70;;;16.60;;
77814;SDS011;67002;52.124;21.210;2023-04-29T14:23:05;36.00;;;15.50;;
77814;SDS011;67002;52.124;21.210;2023-04-29T14:26:30;39.40;;;16.00;;
77814;SDS011;67002;52.124;21.210;2023-04-29T14:30:07;36.60;;;19.10;;
77814;SDS011;67002;52.124;21.210;2023-04-29T14:33:40;39.70;;;18.10;;
77814;SDS011;67002;52.124;21.210;2023-04-29T14:37:26;30.70;;;14.50;;
77814;SDS011;67002;52.124;21.210;2023-04-29T14:41:11;43.10;;;18.60;;
77814;SDS011;67002;52.124;21.210;2023-04-29T14:44:42;40.50;;;17.60;;
77814;SDS011;67002;52.124;21.210;2023-04-29T14:48:19;39.00;;;19.90;;
77814;SDS011;67002;52.124;21.210;2023-04-29T14:51:56;37.20;;;19.10;;
77814;SDS011;67002;52.124;21.210;2023-04-29T14:55:53;38.00;;;19.00;;
77814;SDS011;67002;52.124;21.210;2023-04-29T14:59:11;36.20;;;18.80;;
77814;SDS011;67002;52.124;21.210;2023-04-29T15:03:06;33.30;;;16.70;;
77814;SDS011;67002;52.124;21.210;2023-04-29T15:06:26;46.20;;;25.70;;
77814;SDS011;67002;52.124;21.210;2023-04-29T15:10:30;38.80;;;17.60;;
77814;SDS011;67002;52.124;21.210;2023-04-29T15:13:48;38.30;;;18.10;;
77814;SDS011;67002;52.124;21.210;2023-04-29T15:17:25;40.30;;;24.60;;
77814;SDS011;67002;52.124;21.210;2023-04-29T15:21:08;51.40;;;20.40;;
77814;SDS011;67002;52.124;21.210;2023-04-29T15:24:53;56.00;;;29.20;;
77814;SDS011;67002;52.124;21.210;2023-04-29T15:28:30;43.20;;;19.30;;
77814;SDS011;67002;52.124;21.210;2023-04-29T15:32:28;38.60;;;18.10;;
77814;SDS011;67002;52.124;21.210;2023-04-29T15:35:53;43.10;;;18.90;;
77814;SDS011;67002;52.124;21.210;2023-04-29T15:39:49;44.50;;;18.60;;
77814;SDS011;67002;52.124;21.210;2023-04-29T15:43:35;37.50;;;17.10;;
77814;SDS011;67002;52.124;21.210;2023-04-29T15:46:54;40.30;;;19.40;;
77814;SDS011;67002;52.124;21.210;2023-04-29T15:50:42;37.30;;;17.30;;
77814;SDS011;67002;52.124;21.210;2023-04-29T15:54:03;43.00;;;17.80;;
77814;SDS011;67002;52.124;21.210;2023-04-29T15:57:37;47.60;;;18.10;;
77814;SDS011;67002;52.124;21.210;2023-04-29T16:01:41;40.30;;;18.60;;
77814;SDS011;67002;52.124;21.210;2023-04-29T16:05:19;39.90;;;19.40;;
77814;SDS011;67002;52.124;21.210;2023-04-29T16:08:36;36.60;;;18.90;;
77814;SDS011;67002;52.124;21.210;2023-04-29T16:12:20;37.00;;;18.00;;
77814;SDS011;67002;52.124;21.210;2023-04-29T16:16:23;31.00;;;16.60;;
77814;SDS011;67002;52.124;21.210;2023-04-29T16:19:51;48.30;;;18.90;;
77814;SDS011;67002;52.124;21.210;2023-04-29T16:23:18;46.50;;;20.70;;
77814;SDS011;67002;52.124;21.210;2023-04-29T16:27:11;44.40;;;19.00;;
77814;SDS011;67002;52.124;21.210;2023-04-29T16:31:00;48.80;;;20.70;;
77814;SDS011;67002;52.124;21.210;2023-04-29T16:34:22;50.70;;;20.90;;
77814;SDS011;67002;52.124;21.210;2023-04-29T16:37:55;47.20;;;21.10;;
77814;SDS011;67002;52.124;21.210;2023-04-29T16:41:39;52.10;;;26.90;;
77814;SDS011;67002;52.124;21.210;2023-04-29T16:45:57;54.90;;;23.80;;
77814;SDS011;67002;52.124;21.210;2023-04-29T16:49:05;44.90;;;20.00;;
77814;SDS011;67002;52.124;21.210;2023-04-29T16:52:39;49.50;;;26.00;;
77814;SDS011;67002;52.124;21.210;2023-04-29T16:56:25;55.80;;;23.00;;
77814;SDS011;67002;52.124;21.210;2023-04-29T17:00:14;58.80;;;26.40;;
77814;SDS011;67002;52.124;21.210;2023-04-29T17:03:33;53.70;;;23.30;;
77814;SDS011;67002;52.124;21.210;2023-04-29T17:07:30;64.90;;;22.80;;
77814;SDS011;67002;52.124;21.210;2023-04-29T17:10:48;65.00;;;23.30;;
77814;SDS011;67002;52.124;21.210;2023-04-29T17:14:24;56.30;;;22.50;;
77814;SDS011;67002;52.124;21.210;2023-04-29T17:18:18;73.70;;;26.00;;
77814;SDS011;67002;52.124;21.210;2023-04-29T17:22:03;85.30;;;29.60;;
77814;SDS011;67002;52.124;21.210;2023-04-29T17:25:43;84.30;;;29.80;;
77814;SDS011;67002;52.124;21.210;2023-04-29T17:29:03;70.50;;;25.00;;
77814;SDS011;67002;52.124;21.210;2023-04-29T17:32:56;73.70;;;29.80;;
77814;SDS011;67002;52.124;21.210;2023-04-29T17:36:15;68.10;;;26.00;;
77814;SDS011;67002;52.124;21.210;2023-04-29T17:39:58;58.00;;;24.90;;
77814;SDS011;67002;52.124;21.210;2023-04-29T17:43:51;64.10;;;24.40;;
77814;SDS011;67002;52.124;21.210;2023-04-29T17:47:43;69.70;;;26.20;;
77814;SDS011;67002;52.124;21.210;2023-04-29T17:51:16;76.50;;;28.00;;
77814;SDS011;67002;52.124;21.210;2023-04-29T17:54:55;75.40;;;28.20;;
77814;SDS011;67002;52.124;21.210;2023-04-29T17:58:12;104.20;;;30.30;;
77814;SDS011;67002;52.124;21.210;2023-04-29T18:02:13;81.20;;;30.50;;
77814;SDS011;67002;52.124;21.210;2023-04-29T18:06:04;94.80;;;32.60;;
77814;SDS011;67002;52.124;21.210;2023-04-29T18:09:31;84.50;;;32.20;;
77814;SDS011;67002;52.124;21.210;2023-04-29T18:13:09;82.10;;;34.60;;
77814;SDS011;67002;52.124;21.210;2023-04-29T18:16:32;92.90;;;35.40;;
77814;SDS011;67002;52.124;21.210;2023-04-29T18:20:04;91.60;;;33.50;;
77814;SDS011;67002;52.124;21.210;2023-04-29T18:23:48;103.80;;;35.20;;
77814;SDS011;67002;52.124;21.210;2023-04-29T18:28:03;99.10;;;35.10;;
77814;SDS011;67002;52.124;21.210;2023-04-29T18:31:22;106.80;;;35.40;;
77814;SDS011;67002;52.124;21.210;2023-04-29T18:35:12;105.00;;;35.10;;
77814;SDS011;67002;52.124;21.210;2023-04-29T18:38:26;100.00;;;37.70;;
77814;SDS011;67002;52.124;21.210;2023-04-29T18:42:10;108.60;;;36.60;;
77814;SDS011;67002;52.124;21.210;2023-04-29T18:45:55;96.30;;;33.00;;
77814;SDS011;67002;52.124;21.210;2023-04-29T18:49:52;107.40;;;35.50;;
77814;SDS011;67002;52.124;21.210;2023-04-29T18:53:14;102.10;;;37.40;;
77814;SDS011;67002;52.124;21.210;2023-04-29T18:57:07;108.80;;;38.90;;
77814;SDS011;67002;52.124;21.210;2023-04-29T19:00:24;108.00;;;40.00;;
77814;SDS011;67002;52.124;21.210;2023-04-29T19:04:37;104.90;;;41.50;;
77814;SDS011;67002;52.124;21.210;2023-04-29T19:08:05;114.30;;;42.00;;
77814;SDS011;67002;52.124;21.210;2023-04-29T19:11:43;123.60;;;45.70;;
77814;SDS011;67002;52.124;21.210;2023-04-29T19:15:16;127.20;;;49.50;;
77814;SDS011;67002;52.124;21.210;2023-04-29T19:18:58;133.20;;;47.50;;
77814;SDS011;67002;52.124;21.210;2023-04-29T19:22:40;127.40;;;49.20;;
77814;SDS011;67002;52.124;21.210;2023-04-29T19:26:22;134.00;;;47.80;;
77814;SDS011;67002;52.124;21.210;2023-04-29T19:29:52;125.60;;;47.40;;
77814;SDS011;67002;52.124;21.210;2023-04-29T19:33:28;128.80;;;45.10;;
77814;SDS011;67002;52.124;21.210;2023-04-29T19:37:07;138.10;;;45.80;;
77814;SDS011;67002;52.124;21.210;2023-04-29T19:40:55;133.60;;;45.50;;
77814;SDS011;67002;52.124;21.210;2023-04-29T19:44:23;147.00;;;49.40;;
77814;SDS011;67002;52.124;21.210;2023-04-29T19:48:10;150.20;;;47.30;;
77814;SDS011;67002;52.124;21.210;2023-04-29T19:51:37;135.40;;;48.20;;
77814;SDS011;67002;52.124;21.210;2023-04-29T19:55:16;138.70;;;51.30;;
77814;SDS011;67002;52.124;21.210;2023-04-29T19:58:33;130.90;;;46.50;;
77814;SDS011;67002;52.124;21.210;2023-04-29T20:02:35;130.10;;;43.20;;
77814;SDS011;67002;52.124;21.210;2023-04-29T20:06:15;132.20;;;47.90;;
77814;SDS011;67002;52.124;21.210;2023-04-29T20:09:31;138.00;;;48.50;;
77814;SDS011;67002;52.124;21.210;2023-04-29T20:13:17;127.20;;;46.50;;
77814;SDS011;67002;52.124;21.210;2023-04-29T20:17:02;138.20;;;48.60;;
77814;SDS011;67002;52.124;21.210;2023-04-29T20:20:39;143.20;;;48.60;;
77814;SDS011;67002;52.124;21.210;2023-04-29T20:24:17;134.90;;;49.10;;
77814;SDS011;67002;52.124;21.210;2023-04-29T20:28:14;143.90;;;51.60;;
77814;SDS011;67002;52.124;21.210;2023-04-29T20:31:52;135.30;;;52.30;;
77814;SDS011;67002;52.124;21.210;2023-04-29T20:35:30;123.30;;;48.40;;
77814;SDS011;67002;52.124;21.210;2023-04-29T20:39:07;154.10;;;57.80;;
77814;SDS011;67002;52.124;21.210;2023-04-29T20:42:26;146.20;;;52.50;;
77814;SDS011;67002;52.124;21.210;2023-04-29T20:46:03;143.90;;;55.90;;
77814;SDS011;67002;52.124;21.210;2023-04-29T20:49:43;163.20;;;54.00;;
77814;SDS011;67002;52.124;21.210;2023-04-29T20:53:38;145.10;;;54.80;;
77814;SDS011;67002;52.124;21.210;2023-04-29T20:57:16;162.00;;;55.40;;
77814;SDS011;67002;52.124;21.210;2023-04-29T21:00:57;149.70;;;53.50;;
77814;SDS011;67002;52.124;21.210;2023-04-29T21:04:30;166.50;;;55.10;;